createdAt,value
2019-03-31T00:02:24.388Z,103.33
2019-03-31T00:04:57.304Z,99.30
2019-03-31T00:07:46.256Z,90.27
2019-03-31T00:10:17.713Z,86.07
2019-03-31T00:12:49.172Z,84.33
2019-03-31T00:15:20.608Z,81.87
2019-03-31T00:17:52.076Z,75.77
2019-03-31T00:20:23.512Z,81.50
2019-03-31T00:22:54.966Z,81.00
2019-03-31T00:25:26.411Z,77.37
2019-03-31T00:27:57.872Z,74.97
2019-03-31T00:30:29.310Z,71.77
2019-03-31T00:33:01.996Z,77.10
2019-03-31T00:35:33.444Z,72.13
2019-03-31T00:38:04.915Z,77.27
2019-03-31T00:40:36.676Z,80.83
2019-03-31T00:43:08.717Z,83.53
2019-03-31T00:45:40.052Z,79.40
2019-03-31T00:48:12.569Z,73.53
2019-03-31T00:50:44.011Z,68.70
2019-03-31T00:53:16.388Z,64.40
2019-03-31T00:55:47.833Z,57.83
2019-03-31T00:58:22.337Z,53.27
2019-03-31T01:00:55.268Z,51.80
2019-03-31T01:03:29.600Z,47.47
2019-03-31T01:06:01.004Z,46.80
2019-03-31T01:08:35.072Z,46.30
2019-03-31T01:11:14.118Z,44.07
2019-03-31T01:13:46.729Z,48.27
2019-03-31T01:16:18.174Z,49.37
2019-03-31T01:18:49.946Z,51.60
2019-03-31T01:21:21.756Z,48.37
2019-03-31T01:23:53.133Z,49.53
2019-03-31T01:26:24.606Z,47.33
2019-03-31T01:28:57.328Z,52.23
2019-03-31T01:31:29.102Z,51.10
2019-03-31T01:34:00.475Z,53.83
2019-03-31T01:36:32.863Z,52.00
2019-03-31T01:39:05.936Z,55.33
2019-03-31T01:41:38.919Z,52.37
2019-03-31T01:44:10.281Z,49.60
2019-03-31T01:46:41.623Z,53.60
2019-03-31T01:49:15.330Z,55.80
2019-03-31T01:51:46.793Z,58.57
2019-03-31T01:54:18.242Z,55.57
2019-03-31T01:56:49.694Z,54.37
2019-03-31T01:59:21.131Z,54.17
2019-03-31T02:02:03.520Z,50.03
2019-03-31T02:04:28.033Z,47.67
2019-03-31T02:06:59.511Z,48.43
2019-03-31T02:09:31.234Z,47.63
2019-03-31T02:12:02.712Z,47.17
2019-03-31T02:14:38.432Z,44.67
2019-03-31T02:17:09.911Z,45.07
2019-03-31T02:19:44.415Z,46.30
2019-03-31T02:22:17.117Z,49.97
2019-03-31T02:24:48.548Z,48.60
2019-03-31T02:27:21.244Z,47.93
2019-03-31T02:29:52.686Z,49.27
2019-03-31T02:32:25.225Z,47.03
2019-03-31T02:34:58.034Z,47.73
2019-03-31T02:37:30.755Z,47.03
2019-03-31T02:40:02.227Z,50.00
2019-03-31T02:42:35.457Z,54.30
2019-03-31T02:45:08.896Z,48.20
2019-03-31T02:47:40.245Z,46.67
2019-03-31T02:50:16.567Z,47.07
2019-03-31T02:52:49.278Z,47.57
2019-03-31T02:55:20.714Z,47.17
2019-03-31T02:57:52.178Z,44.73
2019-03-31T03:00:23.620Z,44.27
2019-03-31T03:02:56.623Z,47.43
2019-03-31T03:05:28.050Z,47.50
2019-03-31T03:07:59.526Z,49.40
2019-03-31T03:10:31.419Z,49.90
2019-03-31T03:13:04.263Z,50.47
2019-03-31T03:19:47.935Z,33.60
2019-03-31T03:22:19.359Z,32.13
2019-03-31T03:24:50.813Z,32.63
2019-03-31T03:27:23.484Z,34.00
2019-03-31T03:29:54.942Z,30.83
2019-03-31T03:32:26.396Z,32.00
2019-03-31T03:34:57.851Z,31.03
2019-03-31T03:37:29.300Z,31.27
2019-03-31T03:40:02.938Z,34.60
2019-03-31T03:42:34.506Z,30.90
2019-03-31T03:45:08.574Z,32.57
2019-03-31T03:47:40.020Z,31.17
2019-03-31T03:50:11.493Z,34.30
2019-03-31T03:52:42.917Z,32.73
2019-03-31T03:55:15.614Z,32.00
2019-03-31T03:57:48.276Z,30.87
2019-03-31T04:00:20.965Z,28.03
2019-03-31T04:02:54.566Z,31.27
2019-03-31T04:05:27.242Z,32.03
2019-03-31T04:07:59.930Z,32.03
2019-03-31T04:10:48.558Z,29.90
2019-03-31T04:13:21.260Z,27.27
2019-03-31T04:15:53.939Z,31.00
2019-03-31T04:18:26.790Z,29.30
2019-03-31T04:20:59.607Z,30.17
2019-03-31T04:23:32.290Z,28.80
2019-03-31T04:26:03.747Z,30.73
2019-03-31T04:28:35.188Z,30.80
2019-03-31T04:31:07.883Z,29.20
2019-03-31T04:33:50.252Z,30.43
2019-03-31T04:36:15.686Z,29.27
2019-03-31T04:38:47.144Z,26.57
2019-03-31T04:41:19.817Z,30.03
2019-03-31T04:43:52.508Z,27.97
2019-03-31T04:46:23.961Z,28.83
2019-03-31T04:49:01.556Z,27.53
2019-03-31T04:51:39.754Z,25.33
2019-03-31T04:54:13.672Z,26.33
2019-03-31T04:56:46.345Z,27.57
2019-03-31T04:59:19.953Z,26.23
2019-03-31T05:01:51.422Z,24.40
2019-03-31T05:04:22.840Z,26.17
2019-03-31T05:06:54.303Z,26.20
2019-03-31T05:09:25.755Z,26.33
2019-03-31T05:11:58.433Z,28.97
2019-03-31T05:14:32.032Z,31.37
2019-03-31T05:17:03.492Z,32.77
2019-03-31T05:19:34.930Z,32.97
2019-03-31T05:22:06.392Z,31.97
2019-03-31T05:24:37.836Z,33.43
2019-03-31T05:27:10.230Z,32.47
2019-03-31T05:29:41.668Z,31.30
2019-03-31T05:32:13.113Z,31.83
2019-03-31T05:34:45.797Z,31.80
2019-03-31T05:37:19.468Z,30.67
2019-03-31T05:39:52.087Z,29.03
2019-03-31T05:42:24.453Z,30.83
2019-03-31T05:44:57.121Z,29.67
2019-03-31T05:47:29.827Z,30.63
2019-03-31T05:50:02.897Z,33.20
2019-03-31T05:52:34.266Z,37.53
2019-03-31T05:55:07.340Z,36.67
2019-03-31T05:57:38.702Z,34.17
2019-03-31T06:00:12.591Z,34.07
2019-03-31T06:02:45.287Z,31.50
2019-03-31T06:05:16.746Z,26.10
2019-03-31T06:07:48.185Z,25.37
2019-03-31T06:10:19.630Z,25.73
2019-03-31T06:12:52.323Z,23.40
2019-03-31T06:15:23.763Z,23.77
2019-03-31T06:17:55.215Z,23.33
2019-03-31T06:20:27.585Z,22.63
2019-03-31T06:22:59.047Z,22.63
2019-03-31T06:25:30.498Z,24.43
2019-03-31T06:28:01.944Z,23.27
2019-03-31T06:30:33.397Z,24.33
2019-03-31T06:33:04.843Z,21.20
2019-03-31T06:35:36.295Z,21.70
2019-03-31T06:38:07.774Z,21.67
2019-03-31T06:40:41.472Z,21.63
2019-03-31T06:43:13.134Z,21.43
2019-03-31T06:45:44.583Z,21.47
2019-03-31T06:48:16.999Z,21.70
2019-03-31T06:50:48.541Z,22.17
2019-03-31T06:53:20.289Z,21.70
2019-03-31T06:55:51.631Z,21.90
2019-03-31T06:58:23.119Z,23.40
2019-03-31T07:00:54.785Z,24.70
2019-03-31T07:03:26.337Z,24.10
2019-03-31T07:05:57.773Z,24.27
2019-03-31T07:08:29.712Z,22.37
2019-03-31T07:11:02.585Z,23.73
2019-03-31T07:13:33.976Z,23.17
2019-03-31T07:16:05.448Z,22.93
2019-03-31T07:18:38.065Z,22.90
2019-03-31T07:21:09.810Z,22.00
2019-03-31T07:23:41.257Z,23.23
2019-03-31T07:26:12.775Z,24.77
2019-03-31T07:28:44.197Z,20.90
2019-03-31T07:31:15.634Z,22.37
2019-03-31T07:33:47.100Z,22.63
2019-03-31T07:36:20.536Z,23.23
2019-03-31T07:38:54.065Z,18.70
2019-03-31T07:41:26.109Z,22.57
2019-03-31T07:43:58.212Z,22.53
2019-03-31T07:46:30.199Z,20.77
2019-03-31T07:49:01.613Z,22.87
2019-03-31T07:51:33.076Z,25.63
2019-03-31T07:54:04.532Z,22.57
2019-03-31T07:56:35.950Z,21.13
2019-03-31T07:59:09.034Z,21.43
2019-03-31T08:01:41.942Z,22.40
2019-03-31T08:04:13.378Z,23.27
2019-03-31T08:06:44.850Z,23.03
2019-03-31T08:09:16.286Z,22.50
2019-03-31T08:11:47.735Z,19.10
2019-03-31T08:14:19.191Z,22.80
2019-03-31T08:16:50.665Z,22.80
2019-03-31T08:19:24.865Z,19.50
2019-03-31T08:21:56.322Z,20.87
2019-03-31T08:24:27.763Z,21.77
2019-03-31T08:27:00.759Z,20.17
2019-03-31T08:29:32.215Z,21.30
2019-03-31T08:32:05.234Z,20.73
2019-03-31T08:34:37.880Z,19.87
2019-03-31T08:37:09.319Z,17.27
2019-03-31T08:39:42.816Z,18.87
2019-03-31T08:42:14.391Z,16.43
2019-03-31T08:44:52.764Z,21.40
2019-03-31T08:47:28.635Z,22.67
2019-03-31T08:50:05.543Z,21.50
2019-03-31T08:52:44.716Z,19.53
2019-03-31T08:55:19.093Z,15.17
2019-03-31T08:57:53.121Z,23.37
2019-03-31T09:00:27.919Z,23.77
2019-03-31T09:02:59.890Z,22.40
2019-03-31T09:05:31.366Z,17.90
2019-03-31T09:08:07.509Z,20.30
2019-03-31T09:10:45.204Z,18.73
2019-03-31T09:13:17.664Z,21.47
2019-03-31T09:15:51.939Z,23.10
2019-03-31T09:18:23.270Z,22.83
2019-03-31T09:20:55.920Z,23.87
2019-03-31T09:23:28.872Z,24.10
2019-03-31T09:26:01.271Z,23.10
2019-03-31T09:28:32.747Z,20.60
2019-03-31T09:31:04.491Z,17.27
2019-03-31T09:33:39.222Z,24.37
2019-03-31T09:36:16.557Z,24.37
2019-03-31T09:38:48.473Z,24.23
2019-03-31T09:41:21.373Z,22.47
2019-03-31T09:43:52.782Z,20.77
2019-03-31T09:46:24.633Z,21.83
2019-03-31T09:48:57.988Z,20.30
2019-03-31T09:51:30.843Z,16.70
2019-03-31T09:54:02.302Z,21.30
2019-03-31T09:56:33.657Z,22.57
2019-03-31T09:59:05.207Z,19.03
2019-03-31T10:01:39.101Z,19.47
2019-03-31T10:04:10.529Z,18.17
2019-03-31T10:06:42.007Z,19.07
2019-03-31T10:09:13.489Z,16.73
2019-03-31T10:11:47.412Z,16.37
2019-03-31T10:14:21.497Z,15.60
2019-03-31T10:16:59.167Z,18.67
2019-03-31T10:19:32.163Z,16.63
2019-03-31T10:22:03.609Z,13.50
2019-03-31T10:24:35.061Z,16.00
2019-03-31T10:27:06.518Z,14.27
2019-03-31T10:29:37.957Z,14.83
2019-03-31T10:32:11.043Z,12.80
2019-03-31T10:34:44.014Z,10.80
2019-03-31T10:37:15.391Z,11.03
2019-03-31T10:39:48.077Z,12.30
2019-03-31T10:42:20.520Z,12.93
2019-03-31T10:44:51.895Z,12.47
2019-03-31T10:47:23.350Z,13.07
2019-03-31T10:49:54.801Z,13.07
2019-03-31T10:52:26.259Z,11.70
2019-03-31T10:54:58.619Z,11.43
2019-03-31T10:57:30.093Z,12.53
2019-03-31T11:00:03.171Z,12.70
2019-03-31T11:02:34.833Z,13.03
2019-03-31T11:05:11.537Z,11.37
2019-03-31T11:07:47.860Z,12.00
2019-03-31T11:10:19.145Z,10.77
2019-03-31T11:12:51.797Z,10.50
2019-03-31T11:15:23.166Z,12.33
2019-03-31T11:17:54.602Z,11.23
2019-03-31T11:20:28.221Z,11.30
2019-03-31T11:23:07.238Z,12.53
2019-03-31T11:25:40.398Z,10.20
2019-03-31T11:28:11.746Z,9.23
2019-03-31T11:30:44.889Z,9.20
2019-03-31T11:33:17.423Z,9.10
2019-03-31T11:35:48.875Z,9.00
2019-03-31T11:38:20.516Z,8.70
2019-03-31T11:40:53.043Z,8.80
2019-03-31T11:43:24.475Z,10.00
2019-03-31T11:45:55.906Z,6.67
2019-03-31T11:48:27.375Z,8.57
2019-03-31T11:51:00.435Z,9.60
2019-03-31T11:53:31.811Z,9.40
2019-03-31T11:56:03.262Z,10.00
2019-03-31T11:58:43.196Z,9.67
2019-03-31T12:01:13.518Z,9.73
2019-03-31T12:03:45.088Z,9.40
2019-03-31T12:06:19.194Z,10.27
2019-03-31T12:08:50.729Z,8.37
2019-03-31T12:11:24.491Z,6.93
2019-03-31T12:13:59.482Z,7.37
2019-03-31T12:16:34.022Z,6.60
2019-03-31T12:19:12.070Z,6.27
2019-03-31T12:21:45.501Z,6.87
2019-03-31T12:24:18.484Z,6.43
2019-03-31T12:26:49.870Z,7.10
2019-03-31T12:29:22.732Z,5.80
2019-03-31T12:32:02.657Z,6.37
2019-03-31T12:34:35.265Z,7.03
2019-03-31T12:37:06.735Z,7.20
2019-03-31T12:39:38.189Z,5.77
2019-03-31T12:42:09.691Z,4.60
2019-03-31T12:44:41.086Z,7.43
2019-03-31T12:47:12.568Z,6.03
2019-03-31T12:49:45.951Z,8.00
2019-03-31T12:52:18.923Z,6.80
2019-03-31T12:54:50.272Z,6.00
2019-03-31T12:57:21.704Z,13.53
2019-03-31T12:59:55.620Z,6.40
2019-03-31T13:02:27.080Z,6.07
2019-03-31T13:04:59.469Z,14.90
2019-03-31T13:07:30.928Z,8.80
2019-03-31T13:10:03.755Z,6.83
2019-03-31T13:12:37.191Z,6.73
2019-03-31T13:15:11.498Z,5.97
2019-03-31T13:17:44.373Z,6.37
2019-03-31T13:20:15.850Z,7.27
2019-03-31T13:22:48.847Z,5.40
2019-03-31T13:25:23.717Z,5.13
2019-03-31T13:27:57.574Z,5.97
2019-03-31T13:30:32.919Z,8.03
2019-03-31T13:33:06.008Z,11.27
2019-03-31T13:35:38.382Z,7.97
2019-03-31T13:38:11.886Z,8.67
2019-03-31T13:40:43.464Z,4.90
2019-03-31T13:43:16.102Z,6.20
2019-03-31T13:45:49.225Z,11.67
2019-03-31T13:48:21.811Z,14.27
2019-03-31T13:50:54.763Z,7.90
2019-03-31T13:53:29.133Z,6.13
2019-03-31T13:56:00.501Z,7.13
2019-03-31T13:58:33.600Z,17.67
2019-03-31T14:01:05.250Z,10.27
2019-03-31T14:03:36.654Z,8.60
2019-03-31T14:06:08.092Z,6.27
2019-03-31T14:08:39.515Z,6.50
2019-03-31T14:11:10.971Z,7.17
2019-03-31T14:13:44.931Z,5.97
2019-03-31T14:16:16.339Z,5.40
2019-03-31T14:18:48.710Z,6.47
2019-03-31T14:21:20.192Z,6.93
2019-03-31T14:23:51.608Z,5.57
2019-03-31T14:26:23.067Z,6.20
2019-03-31T14:28:54.503Z,8.80
2019-03-31T14:31:25.995Z,6.30
2019-03-31T14:33:57.448Z,5.97
2019-03-31T14:36:29.200Z,7.30
2019-03-31T14:39:00.638Z,5.97
2019-03-31T14:41:35.531Z,5.90
2019-03-31T14:44:09.101Z,5.37
2019-03-31T14:46:41.769Z,5.03
2019-03-31T14:49:13.198Z,6.90
2019-03-31T14:51:44.633Z,6.67
2019-03-31T14:54:16.082Z,5.63
2019-03-31T14:56:47.660Z,4.77
2019-03-31T14:59:19.124Z,4.40
2019-03-31T15:01:51.699Z,4.50
2019-03-31T15:04:24.077Z,4.93
2019-03-31T15:06:55.546Z,5.70
2019-03-31T15:09:28.221Z,6.40
2019-03-31T15:12:00.870Z,5.40
2019-03-31T15:14:34.489Z,5.47
2019-03-31T15:17:07.204Z,5.90
2019-03-31T15:19:38.612Z,6.80
2019-03-31T15:22:10.090Z,5.93
2019-03-31T15:24:43.153Z,7.60
2019-03-31T15:27:14.530Z,6.40
2019-03-31T15:29:45.934Z,6.60
2019-03-31T15:32:17.384Z,8.20
2019-03-31T15:34:48.880Z,15.63
2019-03-31T15:37:21.601Z,6.10
2019-03-31T15:39:53.002Z,25.27
2019-03-31T15:42:26.685Z,25.03
2019-03-31T15:45:00.505Z,7.70
2019-03-31T15:47:31.963Z,5.93
2019-03-31T15:50:04.172Z,5.23
2019-03-31T15:52:36.964Z,9.57
2019-03-31T15:55:09.733Z,8.30
2019-03-31T15:57:41.220Z,29.20
2019-03-31T16:00:12.946Z,8.33
2019-03-31T16:02:44.325Z,29.10
2019-03-31T16:05:17.294Z,13.70
2019-03-31T16:07:49.776Z,20.23
2019-03-31T16:10:23.597Z,14.73
2019-03-31T16:12:55.043Z,45.80
2019-03-31T16:15:26.495Z,12.53
2019-03-31T16:17:59.507Z,18.20
2019-03-31T16:20:30.935Z,60.87
2019-03-31T16:23:02.688Z,17.20
2019-03-31T16:25:38.678Z,16.07
2019-03-31T16:28:10.220Z,18.67
2019-03-31T16:30:41.799Z,14.63
2019-03-31T16:33:14.652Z,16.17
2019-03-31T16:35:46.077Z,10.83
2019-03-31T16:38:17.554Z,11.33
2019-03-31T16:40:48.999Z,9.67
2019-03-31T16:43:20.449Z,17.67
2019-03-31T16:45:54.373Z,13.10
2019-03-31T16:48:26.719Z,13.43
2019-03-31T16:50:58.176Z,8.40
2019-03-31T16:53:29.627Z,7.50
2019-03-31T16:56:04.321Z,9.87
2019-03-31T16:58:36.844Z,13.93
2019-03-31T17:01:11.693Z,11.33
2019-03-31T17:03:43.335Z,13.03
2019-03-31T17:06:14.861Z,13.80
2019-03-31T17:08:46.662Z,54.33
2019-03-31T17:11:19.314Z,11.37
2019-03-31T17:13:52.687Z,15.37
2019-03-31T17:16:24.393Z,57.00
2019-03-31T17:18:57.162Z,24.47
2019-03-31T17:21:28.711Z,33.63
2019-03-31T17:24:02.477Z,34.40
2019-03-31T17:26:34.785Z,33.13
2019-03-31T17:29:06.495Z,24.90
2019-03-31T17:31:40.097Z,35.87
2019-03-31T17:34:17.991Z,60.67
2019-03-31T17:36:52.420Z,43.30
2019-03-31T17:39:30.471Z,68.90
2019-03-31T17:42:01.916Z,15.50
2019-03-31T17:44:34.933Z,127.37
2019-03-31T17:47:09.731Z,34.03
2019-03-31T17:49:42.461Z,59.30
2019-03-31T17:52:13.963Z,69.47
2019-03-31T17:54:45.654Z,81.20
2019-03-31T17:57:23.427Z,33.37
2019-03-31T17:59:59.606Z,72.33
2019-03-31T18:02:31.323Z,34.90
2019-03-31T18:05:09.389Z,16.70
2019-03-31T18:07:43.934Z,35.53
2019-03-31T18:10:21.182Z,19.67
2019-03-31T18:12:50.852Z,10.87
2019-03-31T18:15:22.186Z,21.30
2019-03-31T18:17:54.795Z,16.33
2019-03-31T18:20:26.236Z,7.97
2019-03-31T18:22:59.371Z,20.97
2019-03-31T18:25:36.088Z,7.80
2019-03-31T18:28:07.845Z,76.90
2019-03-31T18:30:39.753Z,14.30
2019-03-31T18:33:12.628Z,36.30
2019-03-31T18:35:44.550Z,74.20
2019-03-31T18:38:17.167Z,81.03
2019-03-31T18:40:49.367Z,40.33
2019-03-31T18:43:25.188Z,4.30
2019-03-31T18:46:01.222Z,13.30
2019-03-31T18:48:37.006Z,9.83
2019-03-31T18:51:08.806Z,22.23
2019-03-31T18:53:46.773Z,6.87
2019-03-31T18:56:25.956Z,6.57
2019-03-31T18:58:59.044Z,6.20
2019-03-31T19:01:39.801Z,6.90
2019-03-31T19:04:15.039Z,7.57
2019-03-31T19:06:52.925Z,7.83
2019-03-31T19:09:38.777Z,9.60
2019-03-31T19:12:31.776Z,7.23
2019-03-31T19:15:13.952Z,5.43
2019-03-31T19:17:50.777Z,7.87
2019-03-31T19:20:43.381Z,7.63
2019-03-31T19:23:36.059Z,7.23
2019-03-31T19:26:48.133Z,4.80
2019-03-31T19:29:34.579Z,6.17
2019-03-31T19:32:25.619Z,4.13
2019-03-31T19:35:09.651Z,4.83
2019-03-31T19:37:51.358Z,4.03
2019-03-31T19:40:32.307Z,4.17
2019-03-31T19:43:09.076Z,4.57
2019-03-31T19:45:59.207Z,4.83
2019-03-31T19:49:00.365Z,4.67
2019-03-31T19:51:52.468Z,4.33
2019-03-31T19:54:29.710Z,3.50
2019-03-31T19:57:20.385Z,3.87
2019-03-31T19:59:53.472Z,3.57
2019-03-31T20:02:30.780Z,3.43
2019-03-31T20:05:22.751Z,4.93
2019-03-31T20:08:04.332Z,4.53
2019-03-31T20:10:41.217Z,7.30
2019-03-31T20:13:31.337Z,6.70
2019-03-31T20:16:04.226Z,7.30
2019-03-31T20:18:39.086Z,5.77
2019-03-31T20:21:15.156Z,7.43
2019-03-31T20:23:48.520Z,24.83
2019-03-31T20:26:31.908Z,6.00
2019-03-31T20:29:18.416Z,8.63
2019-03-31T20:32:06.291Z,5.13
2019-03-31T20:34:44.725Z,4.63
2019-03-31T20:37:38.266Z,5.27
2019-03-31T20:40:10.380Z,21.33
2019-03-31T20:42:46.700Z,17.77
2019-03-31T20:45:18.305Z,10.40
2019-03-31T20:47:53.281Z,6.00
2019-03-31T20:50:33.521Z,6.10
2019-03-31T20:53:06.764Z,6.63
2019-03-31T20:55:38.222Z,6.30
2019-03-31T20:58:11.183Z,6.30
2019-03-31T21:00:44.312Z,6.83
2019-03-31T21:03:19.621Z,6.90
2019-03-31T21:05:54.217Z,7.63
2019-03-31T21:08:25.608Z,7.77
2019-03-31T21:11:06.934Z,11.00
2019-03-31T21:13:38.428Z,11.03
2019-03-31T21:16:11.033Z,20.97
2019-03-31T21:18:54.653Z,16.40
2019-03-31T21:21:26.593Z,9.77
2019-03-31T21:23:59.496Z,11.30
2019-03-31T21:26:31.880Z,11.80
2019-03-31T21:29:04.963Z,13.03
2019-03-31T21:31:37.246Z,12.97
2019-03-31T21:34:10.833Z,14.67
2019-03-31T21:36:45.132Z,20.17
2019-03-31T21:39:18.522Z,19.10
2019-03-31T21:41:52.282Z,15.07
2019-03-31T21:44:26.921Z,27.93
2019-03-31T21:47:02.235Z,20.00
2019-03-31T21:49:39.810Z,16.90
2019-03-31T21:52:20.049Z,14.93
2019-03-31T21:54:53.168Z,15.30
2019-03-31T21:57:26.336Z,11.60
2019-03-31T22:00:07.398Z,29.03
2019-03-31T22:02:47.850Z,20.87
2019-03-31T22:05:19.258Z,14.30
2019-03-31T22:07:51.186Z,17.83
2019-03-31T22:10:24.397Z,17.40
2019-03-31T22:12:55.749Z,17.37
2019-03-31T22:15:28.110Z,11.90
2019-03-31T22:17:59.544Z,9.77
2019-03-31T22:20:32.234Z,11.20
2019-03-31T22:23:04.913Z,9.50
2019-03-31T22:25:36.368Z,9.40
2019-03-31T22:28:07.808Z,8.20
2019-03-31T22:30:42.531Z,8.47
2019-03-31T22:33:15.646Z,9.03
2019-03-31T22:36:04.585Z,8.77
2019-03-31T22:38:36.973Z,8.37
2019-03-31T22:41:11.687Z,9.10
2019-03-31T22:43:48.618Z,9.67
2019-03-31T22:46:21.785Z,9.67
2019-03-31T22:48:56.564Z,9.23
2019-03-31T22:51:35.575Z,9.27
2019-03-31T22:54:08.405Z,8.83
2019-03-31T22:56:41.934Z,9.57
2019-03-31T22:59:15.998Z,8.67
2019-03-31T23:01:47.390Z,9.00
2019-03-31T23:04:18.810Z,9.53
2019-03-31T23:06:50.274Z,9.40
2019-03-31T23:09:26.955Z,9.53
2019-03-31T23:11:58.395Z,9.43
2019-03-31T23:14:31.080Z,8.93
2019-03-31T23:17:03.817Z,8.67
2019-03-31T23:19:39.030Z,8.57
2019-03-31T23:22:13.820Z,8.57
2019-03-31T23:24:45.935Z,8.77
2019-03-31T23:27:36.154Z,8.50
2019-03-31T23:30:11.496Z,9.50
2019-03-31T23:32:46.883Z,8.40
2019-03-31T23:35:18.327Z,8.27
2019-03-31T23:37:50.989Z,7.80
2019-03-31T23:40:23.676Z,8.33
2019-03-31T23:42:59.524Z,8.03
2019-03-31T23:45:33.741Z,8.63
2019-03-31T23:48:06.218Z,7.83
2019-03-31T23:50:38.697Z,8.03
2019-03-31T23:53:11.232Z,7.50
2019-03-31T23:55:43.760Z,8.47
2019-03-31T23:58:15.217Z,7.00
